sensor_id;sensor_type;location;lat;lon;timestamp;P1;durP1;ratioP1;P2;durP2;ratioP2
24279;SDS011;12395;42.808;23.408;2022-08-30T00:01:25;18.52;;;13.18;;
24279;SDS011;12395;42.808;23.408;2022-08-30T00:03:52;19.73;;;13.18;;
24279;SDS011;12395;42.808;23.408;2022-08-30T00:06:23;17.88;;;12.93;;
24279;SDS011;12395;42.808;23.408;2022-08-30T00:08:51;18.92;;;12.98;;
24279;SDS011;12395;42.808;23.408;2022-08-30T00:11:18;19.10;;;13.27;;
24279;SDS011;12395;42.808;23.408;2022-08-30T00:13:49;17.42;;;13.05;;
24279;SDS011;12395;42.808;23.408;2022-08-30T00:16:16;19.00;;;12.95;;
24279;SDS011;12395;42.808;23.408;2022-08-30T00:21:09;17.35;;;12.48;;
24279;SDS011;12395;42.808;23.408;2022-08-30T00:23:35;18.23;;;12.27;;
24279;SDS011;12395;42.808;23.408;2022-08-30T00:26:01;20.52;;;13.52;;
24279;SDS011;12395;42.808;23.408;2022-08-30T00:28:26;19.27;;;13.55;;
24279;SDS011;12395;42.808;23.408;2022-08-30T00:30:52;22.80;;;13.60;;
24279;SDS011;12395;42.808;23.408;2022-08-30T00:33:18;18.35;;;12.70;;
24279;SDS011;12395;42.808;23.408;2022-08-30T00:35:43;20.30;;;12.98;;
24279;SDS011;12395;42.808;23.408;2022-08-30T00:38:10;17.52;;;12.88;;
24279;SDS011;12395;42.808;23.408;2022-08-30T00:40:37;20.15;;;12.65;;
24279;SDS011;12395;42.808;23.408;2022-08-30T00:43:05;18.67;;;12.75;;
24279;SDS011;12395;42.808;23.408;2022-08-30T00:45:34;20.35;;;12.93;;
24279;SDS011;12395;42.808;23.408;2022-08-30T00:48:01;19.90;;;13.02;;
24279;SDS011;12395;42.808;23.408;2022-08-30T00:50:30;18.65;;;13.25;;
24279;SDS011;12395;42.808;23.408;2022-08-30T00:53:00;18.67;;;13.73;;
24279;SDS011;12395;42.808;23.408;2022-08-30T00:55:29;19.52;;;12.90;;
24279;SDS011;12395;42.808;23.408;2022-08-30T00:57:56;17.88;;;12.48;;
24279;SDS011;12395;42.808;23.408;2022-08-30T01:00:26;17.50;;;12.35;;
24279;SDS011;12395;42.808;23.408;2022-08-30T01:02:52;18.98;;;13.52;;
24279;SDS011;12395;42.808;23.408;2022-08-30T01:05:17;18.70;;;13.38;;
24279;SDS011;12395;42.808;23.408;2022-08-30T01:07:43;18.60;;;13.20;;
24279;SDS011;12395;42.808;23.408;2022-08-30T01:10:09;18.92;;;13.15;;
24279;SDS011;12395;42.808;23.408;2022-08-30T01:12:36;20.20;;;13.68;;
24279;SDS011;12395;42.808;23.408;2022-08-30T01:15:03;21.38;;;14.20;;
24279;SDS011;12395;42.808;23.408;2022-08-30T01:19:57;20.33;;;13.80;;
24279;SDS011;12395;42.808;23.408;2022-08-30T01:22:29;19.77;;;14.05;;
24279;SDS011;12395;42.808;23.408;2022-08-30T01:25:01;19.52;;;13.63;;
24279;SDS011;12395;42.808;23.408;2022-08-30T01:27:29;21.42;;;14.18;;
24279;SDS011;12395;42.808;23.408;2022-08-30T01:29:56;21.67;;;14.77;;
24279;SDS011;12395;42.808;23.408;2022-08-30T01:32:24;18.25;;;13.18;;
24279;SDS011;12395;42.808;23.408;2022-08-30T01:34:55;19.27;;;13.15;;
24279;SDS011;12395;42.808;23.408;2022-08-30T01:37:29;18.52;;;12.93;;
24279;SDS011;12395;42.808;23.408;2022-08-30T01:39:56;21.85;;;13.90;;
24279;SDS011;12395;42.808;23.408;2022-08-30T01:42:22;23.35;;;13.75;;
24279;SDS011;12395;42.808;23.408;2022-08-30T01:44:48;21.27;;;13.18;;
24279;SDS011;12395;42.808;23.408;2022-08-30T01:47:14;22.08;;;13.85;;
24279;SDS011;12395;42.808;23.408;2022-08-30T01:49:42;19.83;;;13.70;;
24279;SDS011;12395;42.808;23.408;2022-08-30T01:52:09;20.45;;;13.55;;
24279;SDS011;12395;42.808;23.408;2022-08-30T01:54:36;20.67;;;13.35;;
24279;SDS011;12395;42.808;23.408;2022-08-30T01:57:02;18.35;;;12.82;;
24279;SDS011;12395;42.808;23.408;2022-08-30T01:59:31;17.88;;;13.02;;
24279;SDS011;12395;42.808;23.408;2022-08-30T02:04:22;18.20;;;12.35;;
24279;SDS011;12395;42.808;23.408;2022-08-30T02:06:47;20.58;;;13.38;;
24279;SDS011;12395;42.808;23.408;2022-08-30T02:09:13;20.10;;;13.68;;
24279;SDS011;12395;42.808;23.408;2022-08-30T02:11:38;21.48;;;14.10;;
24279;SDS011;12395;42.808;23.408;2022-08-30T02:14:04;19.60;;;13.30;;
24279;SDS011;12395;42.808;23.408;2022-08-30T02:16:31;22.73;;;13.97;;
24279;SDS011;12395;42.808;23.408;2022-08-30T02:18:56;18.30;;;12.85;;
24279;SDS011;12395;42.808;23.408;2022-08-30T02:21:22;20.67;;;13.63;;
24279;SDS011;12395;42.808;23.408;2022-08-30T02:23:49;23.70;;;13.93;;
24279;SDS011;12395;42.808;23.408;2022-08-30T02:26:15;21.38;;;14.48;;
24279;SDS011;12395;42.808;23.408;2022-08-30T02:28:41;19.70;;;14.02;;
24279;SDS011;12395;42.808;23.408;2022-08-30T02:31:08;20.52;;;13.98;;
24279;SDS011;12395;42.808;23.408;2022-08-30T02:33:34;18.88;;;13.38;;
24279;SDS011;12395;42.808;23.408;2022-08-30T02:36:00;20.38;;;14.70;;
24279;SDS011;12395;42.808;23.408;2022-08-30T02:38:25;19.38;;;13.45;;
24279;SDS011;12395;42.808;23.408;2022-08-30T02:40:51;21.58;;;13.98;;
24279;SDS011;12395;42.808;23.408;2022-08-30T02:43:16;19.27;;;13.07;;
24279;SDS011;12395;42.808;23.408;2022-08-30T02:45:42;20.33;;;13.48;;
24279;SDS011;12395;42.808;23.408;2022-08-30T02:48:08;19.20;;;13.30;;
24279;SDS011;12395;42.808;23.408;2022-08-30T02:50:33;17.55;;;14.45;;
24279;SDS011;12395;42.808;23.408;2022-08-30T02:52:59;23.02;;;13.98;;
24279;SDS011;12395;42.808;23.408;2022-08-30T02:55:24;19.25;;;14.07;;
24279;SDS011;12395;42.808;23.408;2022-08-30T02:57:49;20.88;;;13.80;;
24279;SDS011;12395;42.808;23.408;2022-08-30T03:00:16;22.20;;;13.27;;
24279;SDS011;12395;42.808;23.408;2022-08-30T03:02:44;20.05;;;13.02;;
24279;SDS011;12395;42.808;23.408;2022-08-30T03:05:10;21.77;;;14.10;;
24279;SDS011;12395;42.808;23.408;2022-08-30T03:07:38;18.52;;;13.52;;
24279;SDS011;12395;42.808;23.408;2022-08-30T03:10:04;20.83;;;14.00;;
24279;SDS011;12395;42.808;23.408;2022-08-30T03:12:30;17.70;;;13.55;;
24279;SDS011;12395;42.808;23.408;2022-08-30T03:14:56;18.48;;;13.95;;
24279;SDS011;12395;42.808;23.408;2022-08-30T03:17:22;22.90;;;14.10;;
24279;SDS011;12395;42.808;23.408;2022-08-30T03:19:48;23.63;;;14.68;;
24279;SDS011;12395;42.808;23.408;2022-08-30T03:22:13;22.67;;;14.80;;
24279;SDS011;12395;42.808;23.408;2022-08-30T03:24:39;23.25;;;15.48;;
24279;SDS011;12395;42.808;23.408;2022-08-30T03:27:04;22.65;;;15.02;;
24279;SDS011;12395;42.808;23.408;2022-08-30T03:29:31;20.87;;;14.27;;
24279;SDS011;12395;42.808;23.408;2022-08-30T03:31:56;23.00;;;14.98;;
24279;SDS011;12395;42.808;23.408;2022-08-30T03:34:23;19.90;;;14.40;;
24279;SDS011;12395;42.808;23.408;2022-08-30T03:36:49;20.20;;;14.70;;
24279;SDS011;12395;42.808;23.408;2022-08-30T03:41:42;21.73;;;14.10;;
24279;SDS011;12395;42.808;23.408;2022-08-30T03:44:07;20.33;;;13.88;;
24279;SDS011;12395;42.808;23.408;2022-08-30T03:46:33;18.92;;;13.20;;
24279;SDS011;12395;42.808;23.408;2022-08-30T03:48:58;20.92;;;13.30;;
24279;SDS011;12395;42.808;23.408;2022-08-30T03:51:24;20.83;;;13.82;;
24279;SDS011;12395;42.808;23.408;2022-08-30T03:53:50;20.38;;;13.68;;
24279;SDS011;12395;42.808;23.408;2022-08-30T03:56:15;22.02;;;13.70;;
24279;SDS011;12395;42.808;23.408;2022-08-30T03:58:42;18.10;;;13.67;;
24279;SDS011;12395;42.808;23.408;2022-08-30T04:01:08;20.70;;;14.20;;
24279;SDS011;12395;42.808;23.408;2022-08-30T04:03:33;22.65;;;14.38;;
24279;SDS011;12395;42.808;23.408;2022-08-30T04:05:59;25.50;;;15.55;;
24279;SDS011;12395;42.808;23.408;2022-08-30T04:08:25;22.95;;;15.48;;
24279;SDS011;12395;42.808;23.408;2022-08-30T04:10:52;19.75;;;13.70;;
24279;SDS011;12395;42.808;23.408;2022-08-30T04:13:19;20.73;;;14.18;;
24279;SDS011;12395;42.808;23.408;2022-08-30T04:15:45;22.25;;;14.20;;
24279;SDS011;12395;42.808;23.408;2022-08-30T04:18:11;19.60;;;13.48;;
24279;SDS011;12395;42.808;23.408;2022-08-30T04:20:37;18.30;;;12.88;;
24279;SDS011;12395;42.808;23.408;2022-08-30T04:23:03;18.27;;;13.68;;
24279;SDS011;12395;42.808;23.408;2022-08-30T04:25:36;18.75;;;13.65;;
24279;SDS011;12395;42.808;23.408;2022-08-30T04:28:03;21.60;;;13.70;;
24279;SDS011;12395;42.808;23.408;2022-08-30T04:30:30;21.40;;;13.48;;
24279;SDS011;12395;42.808;23.408;2022-08-30T04:32:56;20.52;;;14.10;;
24279;SDS011;12395;42.808;23.408;2022-08-30T04:35:22;21.83;;;15.25;;
24279;SDS011;12395;42.808;23.408;2022-08-30T04:37:48;22.35;;;15.43;;
24279;SDS011;12395;42.808;23.408;2022-08-30T04:40:14;25.25;;;15.98;;
24279;SDS011;12395;42.808;23.408;2022-08-30T04:42:40;23.10;;;15.43;;
24279;SDS011;12395;42.808;23.408;2022-08-30T04:45:08;22.52;;;14.93;;
24279;SDS011;12395;42.808;23.408;2022-08-30T04:47:36;23.08;;;15.23;;
24279;SDS011;12395;42.808;23.408;2022-08-30T04:50:03;23.92;;;15.15;;
24279;SDS011;12395;42.808;23.408;2022-08-30T04:52:29;24.80;;;15.63;;
24279;SDS011;12395;42.808;23.408;2022-08-30T04:54:55;21.77;;;15.27;;
24279;SDS011;12395;42.808;23.408;2022-08-30T04:57:22;22.30;;;14.57;;
24279;SDS011;12395;42.808;23.408;2022-08-30T04:59:49;20.38;;;14.98;;
24279;SDS011;12395;42.808;23.408;2022-08-30T05:02:14;22.65;;;15.48;;
24279;SDS011;12395;42.808;23.408;2022-08-30T05:04:40;22.20;;;14.73;;
24279;SDS011;12395;42.808;23.408;2022-08-30T05:07:25;22.63;;;15.60;;
24279;SDS011;12395;42.808;23.408;2022-08-30T05:09:51;22.85;;;15.38;;
24279;SDS011;12395;42.808;23.408;2022-08-30T05:12:16;23.55;;;15.32;;
24279;SDS011;12395;42.808;23.408;2022-08-30T05:14:41;21.77;;;14.98;;
24279;SDS011;12395;42.808;23.408;2022-08-30T05:17:07;21.15;;;15.15;;
24279;SDS011;12395;42.808;23.408;2022-08-30T05:19:32;20.90;;;15.00;;
24279;SDS011;12395;42.808;23.408;2022-08-30T05:21:58;23.45;;;15.50;;
24279;SDS011;12395;42.808;23.408;2022-08-30T05:24:24;22.30;;;15.95;;
24279;SDS011;12395;42.808;23.408;2022-08-30T05:26:50;21.02;;;15.60;;
24279;SDS011;12395;42.808;23.408;2022-08-30T05:29:15;20.45;;;14.13;;
24279;SDS011;12395;42.808;23.408;2022-08-30T05:31:42;22.02;;;14.75;;
24279;SDS011;12395;42.808;23.408;2022-08-30T05:34:08;19.95;;;14.30;;
24279;SDS011;12395;42.808;23.408;2022-08-30T05:36:35;20.05;;;14.07;;
24279;SDS011;12395;42.808;23.408;2022-08-30T05:39:02;23.17;;;14.65;;
24279;SDS011;12395;42.808;23.408;2022-08-30T05:41:28;18.23;;;13.80;;
24279;SDS011;12395;42.808;23.408;2022-08-30T05:43:54;20.55;;;14.10;;
24279;SDS011;12395;42.808;23.408;2022-08-30T05:46:21;18.88;;;14.05;;
24279;SDS011;12395;42.808;23.408;2022-08-30T05:48:47;19.52;;;14.20;;
24279;SDS011;12395;42.808;23.408;2022-08-30T05:51:15;21.52;;;13.93;;
24279;SDS011;12395;42.808;23.408;2022-08-30T05:53:46;19.20;;;13.02;;
24279;SDS011;12395;42.808;23.408;2022-08-30T05:58:40;20.20;;;13.73;;
24279;SDS011;12395;42.808;23.408;2022-08-30T06:01:06;20.40;;;14.02;;
24279;SDS011;12395;42.808;23.408;2022-08-30T06:03:31;19.27;;;13.15;;
24279;SDS011;12395;42.808;23.408;2022-08-30T06:05:57;17.63;;;13.13;;
24279;SDS011;12395;42.808;23.408;2022-08-30T06:08:24;19.75;;;13.50;;
24279;SDS011;12395;42.808;23.408;2022-08-30T06:10:49;20.85;;;13.60;;
24279;SDS011;12395;42.808;23.408;2022-08-30T06:13:15;19.73;;;13.10;;
24279;SDS011;12395;42.808;23.408;2022-08-30T06:15:40;20.88;;;13.40;;
24279;SDS011;12395;42.808;23.408;2022-08-30T06:18:09;21.85;;;13.07;;
24279;SDS011;12395;42.808;23.408;2022-08-30T06:20:38;24.52;;;15.07;;
24279;SDS011;12395;42.808;23.408;2022-08-30T06:23:07;19.85;;;13.80;;
24279;SDS011;12395;42.808;23.408;2022-08-30T06:25:34;18.90;;;13.50;;
24279;SDS011;12395;42.808;23.408;2022-08-30T06:28:03;26.85;;;15.35;;
24279;SDS011;12395;42.808;23.408;2022-08-30T06:30:32;21.23;;;14.52;;
24279;SDS011;12395;42.808;23.408;2022-08-30T06:32:58;18.27;;;13.88;;
24279;SDS011;12395;42.808;23.408;2022-08-30T06:35:24;18.65;;;13.60;;
24279;SDS011;12395;42.808;23.408;2022-08-30T06:37:51;21.80;;;13.52;;
24279;SDS011;12395;42.808;23.408;2022-08-30T06:40:16;20.52;;;13.75;;
24279;SDS011;12395;42.808;23.408;2022-08-30T06:42:44;17.88;;;12.93;;
24279;SDS011;12395;42.808;23.408;2022-08-30T06:45:10;18.25;;;11.57;;
24279;SDS011;12395;42.808;23.408;2022-08-30T06:47:35;17.80;;;11.82;;
24279;SDS011;12395;42.808;23.408;2022-08-30T06:50:01;15.80;;;11.85;;
24279;SDS011;12395;42.808;23.408;2022-08-30T06:52:26;15.65;;;11.98;;
24279;SDS011;12395;42.808;23.408;2022-08-30T06:54:52;27.00;;;17.05;;
24279;SDS011;12395;42.808;23.408;2022-08-30T06:59:44;23.38;;;16.48;;
24279;SDS011;12395;42.808;23.408;2022-08-30T07:02:10;17.35;;;12.35;;
24279;SDS011;12395;42.808;23.408;2022-08-30T07:04:35;16.02;;;12.02;;
24279;SDS011;12395;42.808;23.408;2022-08-30T07:07:02;18.20;;;12.05;;
24279;SDS011;12395;42.808;23.408;2022-08-30T07:09:28;21.33;;;12.18;;
24279;SDS011;12395;42.808;23.408;2022-08-30T07:11:53;17.23;;;12.73;;
24279;SDS011;12395;42.808;23.408;2022-08-30T07:14:19;17.55;;;12.07;;
24279;SDS011;12395;42.808;23.408;2022-08-30T07:16:44;18.90;;;12.98;;
24279;SDS011;12395;42.808;23.408;2022-08-30T07:19:10;19.70;;;13.48;;
24279;SDS011;12395;42.808;23.408;2022-08-30T07:21:37;19.08;;;13.70;;
24279;SDS011;12395;42.808;23.408;2022-08-30T07:24:07;20.38;;;13.07;;
24279;SDS011;12395;42.808;23.408;2022-08-30T07:26:42;18.80;;;13.80;;
24279;SDS011;12395;42.808;23.408;2022-08-30T07:29:14;22.05;;;14.55;;
24279;SDS011;12395;42.808;23.408;2022-08-30T07:31:40;20.23;;;13.90;;
24279;SDS011;12395;42.808;23.408;2022-08-30T07:34:06;19.67;;;14.23;;
24279;SDS011;12395;42.808;23.408;2022-08-30T07:36:33;19.90;;;13.93;;
24279;SDS011;12395;42.808;23.408;2022-08-30T07:38:59;26.15;;;14.65;;
24279;SDS011;12395;42.808;23.408;2022-08-30T07:41:26;24.95;;;15.77;;
24279;SDS011;12395;42.808;23.408;2022-08-30T07:43:58;22.95;;;15.43;;
24279;SDS011;12395;42.808;23.408;2022-08-30T07:46:23;23.52;;;15.63;;
24279;SDS011;12395;42.808;23.408;2022-08-30T07:48:50;20.60;;;14.73;;
24279;SDS011;12395;42.808;23.408;2022-08-30T07:51:17;25.25;;;16.05;;
24279;SDS011;12395;42.808;23.408;2022-08-30T07:53:44;23.83;;;16.38;;
24279;SDS011;12395;42.808;23.408;2022-08-30T07:56:10;23.80;;;16.92;;
24279;SDS011;12395;42.808;23.408;2022-08-30T07:58:36;23.27;;;16.73;;
24279;SDS011;12395;42.808;23.408;2022-08-30T08:01:03;21.85;;;16.60;;
24279;SDS011;12395;42.808;23.408;2022-08-30T08:03:29;29.35;;;17.40;;
24279;SDS011;12395;42.808;23.408;2022-08-30T08:05:55;26.13;;;17.95;;
24279;SDS011;12395;42.808;23.408;2022-08-30T08:08:21;26.58;;;18.02;;
24279;SDS011;12395;42.808;23.408;2022-08-30T08:10:46;25.55;;;16.83;;
24279;SDS011;12395;42.808;23.408;2022-08-30T08:13:12;21.83;;;15.95;;
24279;SDS011;12395;42.808;23.408;2022-08-30T08:15:37;21.75;;;15.18;;
24279;SDS011;12395;42.808;23.408;2022-08-30T08:18:04;22.40;;;16.35;;
24279;SDS011;12395;42.808;23.408;2022-08-30T08:20:30;23.73;;;15.05;;
24279;SDS011;12395;42.808;23.408;2022-08-30T08:22:56;20.83;;;15.77;;
24279;SDS011;12395;42.808;23.408;2022-08-30T08:25:22;20.85;;;14.27;;
24279;SDS011;12395;42.808;23.408;2022-08-30T08:27:48;20.88;;;14.70;;
24279;SDS011;12395;42.808;23.408;2022-08-30T08:30:15;20.60;;;14.50;;
24279;SDS011;12395;42.808;23.408;2022-08-30T08:32:42;21.92;;;14.90;;
24279;SDS011;12395;42.808;23.408;2022-08-30T08:35:08;22.30;;;14.90;;
24279;SDS011;12395;42.808;23.408;2022-08-30T08:37:35;18.23;;;14.10;;
24279;SDS011;12395;42.808;23.408;2022-08-30T08:40:00;18.35;;;13.93;;
24279;SDS011;12395;42.808;23.408;2022-08-30T08:42:40;19.20;;;13.68;;
24279;SDS011;12395;42.808;23.408;2022-08-30T08:48:08;19.80;;;14.02;;
24279;SDS011;12395;42.808;23.408;2022-08-30T08:50:38;21.42;;;14.07;;
24279;SDS011;12395;42.808;23.408;2022-08-30T08:53:25;19.30;;;13.25;;
24279;SDS011;12395;42.808;23.408;2022-08-30T08:55:59;17.15;;;12.82;;
24279;SDS011;12395;42.808;23.408;2022-08-30T08:58:29;18.00;;;12.73;;
24279;SDS011;12395;42.808;23.408;2022-08-30T09:00:58;19.50;;;13.05;;
24279;SDS011;12395;42.808;23.408;2022-08-30T09:03:25;19.60;;;13.75;;
24279;SDS011;12395;42.808;23.408;2022-08-30T09:05:53;20.30;;;13.90;;
24279;SDS011;12395;42.808;23.408;2022-08-30T09:08:20;28.63;;;20.67;;
24279;SDS011;12395;42.808;23.408;2022-08-30T09:11:00;19.73;;;14.68;;
24279;SDS011;12395;42.808;23.408;2022-08-30T09:13:29;21.15;;;14.63;;
24279;SDS011;12395;42.808;23.408;2022-08-30T09:15:56;18.13;;;13.77;;
24279;SDS011;12395;42.808;23.408;2022-08-30T09:21:08;18.73;;;13.75;;
24279;SDS011;12395;42.808;23.408;2022-08-30T09:23:35;19.35;;;13.43;;
24279;SDS011;12395;42.808;23.408;2022-08-30T09:26:10;18.90;;;13.13;;
24279;SDS011;12395;42.808;23.408;2022-08-30T09:31:30;18.42;;;11.82;;
24279;SDS011;12395;42.808;23.408;2022-08-30T09:34:01;18.55;;;13.02;;
24279;SDS011;12395;42.808;23.408;2022-08-30T09:36:37;23.70;;;13.95;;
24279;SDS011;12395;42.808;23.408;2022-08-30T09:39:16;22.48;;;14.68;;
24279;SDS011;12395;42.808;23.408;2022-08-30T09:41:51;24.42;;;15.30;;
24279;SDS011;12395;42.808;23.408;2022-08-30T09:44:21;23.60;;;14.77;;
24279;SDS011;12395;42.808;23.408;2022-08-30T09:57:56;20.80;;;15.43;;
24279;SDS011;12395;42.808;23.408;2022-08-30T10:00:26;23.55;;;15.63;;
24279;SDS011;12395;42.808;23.408;2022-08-30T10:06:21;20.83;;;14.95;;
24279;SDS011;12395;42.808;23.408;2022-08-30T10:08:53;22.02;;;15.15;;
24279;SDS011;12395;42.808;23.408;2022-08-30T10:14:27;19.60;;;14.80;;
24279;SDS011;12395;42.808;23.408;2022-08-30T10:22:27;21.48;;;15.15;;
24279;SDS011;12395;42.808;23.408;2022-08-30T10:25:13;22.63;;;15.43;;
24279;SDS011;12395;42.808;23.408;2022-08-30T10:30:23;22.85;;;16.10;;
24279;SDS011;12395;42.808;23.408;2022-08-30T10:35:28;25.40;;;17.38;;
24279;SDS011;12395;42.808;23.408;2022-08-30T10:38:00;21.50;;;15.27;;
24279;SDS011;12395;42.808;23.408;2022-08-30T10:40:31;22.77;;;16.90;;
24279;SDS011;12395;42.808;23.408;2022-08-30T10:44:04;21.25;;;15.23;;
24279;SDS011;12395;42.808;23.408;2022-08-30T10:48:55;20.15;;;15.15;;
24279;SDS011;12395;42.808;23.408;2022-08-30T10:57:07;18.67;;;14.10;;
24279;SDS011;12395;42.808;23.408;2022-08-30T10:59:33;21.95;;;15.35;;
24279;SDS011;12395;42.808;23.408;2022-08-30T11:13:30;24.00;;;14.50;;
24279;SDS011;12395;42.808;23.408;2022-08-30T11:16:07;20.02;;;14.77;;
24279;SDS011;12395;42.808;23.408;2022-08-30T11:18:40;20.10;;;14.40;;
24279;SDS011;12395;42.808;23.408;2022-08-30T11:21:23;19.52;;;14.18;;
24279;SDS011;12395;42.808;23.408;2022-08-30T11:32:19;20.30;;;14.55;;
24279;SDS011;12395;42.808;23.408;2022-08-30T11:42:50;23.05;;;14.57;;
24279;SDS011;12395;42.808;23.408;2022-08-30T11:50:22;25.38;;;15.52;;
24279;SDS011;12395;42.808;23.408;2022-08-30T12:03:55;19.80;;;14.65;;
24279;SDS011;12395;42.808;23.408;2022-08-30T12:17:27;22.58;;;15.70;;
24279;SDS011;12395;42.808;23.408;2022-08-30T12:22:42;19.05;;;14.50;;
24279;SDS011;12395;42.808;23.408;2022-08-30T12:25:17;22.25;;;15.73;;
24279;SDS011;12395;42.808;23.408;2022-08-30T12:27:46;20.67;;;14.65;;
24279;SDS011;12395;42.808;23.408;2022-08-30T12:30:11;22.90;;;15.40;;
24279;SDS011;12395;42.808;23.408;2022-08-30T12:32:44;19.73;;;15.27;;
24279;SDS011;12395;42.808;23.408;2022-08-30T12:35:19;20.10;;;14.07;;
24279;SDS011;12395;42.808;23.408;2022-08-30T12:38:01;19.17;;;14.25;;
24279;SDS011;12395;42.808;23.408;2022-08-30T12:40:30;16.95;;;14.10;;
24279;SDS011;12395;42.808;23.408;2022-08-30T12:43:02;19.75;;;13.45;;
24279;SDS011;12395;42.808;23.408;2022-08-30T12:45:31;18.48;;;13.02;;
24279;SDS011;12395;42.808;23.408;2022-08-30T12:48:05;19.30;;;12.93;;
24279;SDS011;12395;42.808;23.408;2022-08-30T12:50:37;15.93;;;12.85;;
24279;SDS011;12395;42.808;23.408;2022-08-30T12:53:31;16.48;;;12.27;;
24279;SDS011;12395;42.808;23.408;2022-08-30T12:58:48;17.00;;;11.10;;
24279;SDS011;12395;42.808;23.408;2022-08-30T13:01:32;15.65;;;11.57;;
24279;SDS011;12395;42.808;23.408;2022-08-30T13:06:52;14.05;;;10.90;;
24279;SDS011;12395;42.808;23.408;2022-08-30T13:11:48;16.43;;;11.73;;
24279;SDS011;12395;42.808;23.408;2022-08-30T13:17:05;18.23;;;11.95;;
24279;SDS011;12395;42.808;23.408;2022-08-30T13:19:43;17.77;;;12.07;;
24279;SDS011;12395;42.808;23.408;2022-08-30T13:24:59;16.85;;;12.35;;
24279;SDS011;12395;42.808;23.408;2022-08-30T13:27:25;15.95;;;11.50;;
24279;SDS011;12395;42.808;23.408;2022-08-30T13:29:52;16.25;;;11.52;;
24279;SDS011;12395;42.808;23.408;2022-08-30T13:32:18;16.65;;;11.68;;
24279;SDS011;12395;42.808;23.408;2022-08-30T13:34:44;16.65;;;11.07;;
24279;SDS011;12395;42.808;23.408;2022-08-30T13:37:12;15.43;;;11.13;;
24279;SDS011;12395;42.808;23.408;2022-08-30T13:39:41;13.85;;;10.77;;
24279;SDS011;12395;42.808;23.408;2022-08-30T13:42:07;15.35;;;10.73;;
24279;SDS011;12395;42.808;23.408;2022-08-30T13:44:33;14.40;;;10.02;;
24279;SDS011;12395;42.808;23.408;2022-08-30T13:46:58;13.63;;;9.80;;
24279;SDS011;12395;42.808;23.408;2022-08-30T13:49:29;16.43;;;10.20;;
24279;SDS011;12395;42.808;23.408;2022-08-30T13:51:57;16.40;;;10.88;;
24279;SDS011;12395;42.808;23.408;2022-08-30T13:54:23;17.17;;;10.90;;
24279;SDS011;12395;42.808;23.408;2022-08-30T13:56:52;14.82;;;11.20;;
24279;SDS011;12395;42.808;23.408;2022-08-30T13:59:19;15.88;;;10.73;;
24279;SDS011;12395;42.808;23.408;2022-08-30T14:01:45;14.45;;;10.77;;
24279;SDS011;12395;42.808;23.408;2022-08-30T14:04:11;14.77;;;10.50;;
24279;SDS011;12395;42.808;23.408;2022-08-30T14:06:37;14.32;;;10.18;;
24279;SDS011;12395;42.808;23.408;2022-08-30T14:09:03;12.05;;;9.43;;
24279;SDS011;12395;42.808;23.408;2022-08-30T14:11:30;10.45;;;8.38;;
24279;SDS011;12395;42.808;23.408;2022-08-30T14:13:57;11.07;;;8.43;;
24279;SDS011;12395;42.808;23.408;2022-08-30T14:16:22;13.50;;;7.75;;
24279;SDS011;12395;42.808;23.408;2022-08-30T14:18:47;12.68;;;8.70;;
24279;SDS011;12395;42.808;23.408;2022-08-30T14:21:13;12.60;;;8.82;;
24279;SDS011;12395;42.808;23.408;2022-08-30T14:23:38;14.20;;;8.82;;
24279;SDS011;12395;42.808;23.408;2022-08-30T14:26:04;10.75;;;7.30;;
24279;SDS011;12395;42.808;23.408;2022-08-30T14:28:44;10.93;;;7.07;;
24279;SDS011;12395;42.808;23.408;2022-08-30T14:31:10;11.93;;;7.53;;
24279;SDS011;12395;42.808;23.408;2022-08-30T14:33:35;14.50;;;8.38;;
24279;SDS011;12395;42.808;23.408;2022-08-30T14:36:01;11.20;;;8.02;;
24279;SDS011;12395;42.808;23.408;2022-08-30T14:38:27;11.50;;;8.53;;
24279;SDS011;12395;42.808;23.408;2022-08-30T14:40:53;11.15;;;8.23;;
24279;SDS011;12395;42.808;23.408;2022-08-30T14:43:18;11.68;;;8.23;;
24279;SDS011;12395;42.808;23.408;2022-08-30T14:45:43;11.07;;;7.40;;
24279;SDS011;12395;42.808;23.408;2022-08-30T14:48:09;12.90;;;7.70;;
24279;SDS011;12395;42.808;23.408;2022-08-30T14:50:35;9.40;;;7.30;;
24279;SDS011;12395;42.808;23.408;2022-08-30T14:53:01;10.18;;;7.93;;
24279;SDS011;12395;42.808;23.408;2022-08-30T14:55:26;9.60;;;7.28;;
24279;SDS011;12395;42.808;23.408;2022-08-30T14:57:55;9.55;;;7.32;;
24279;SDS011;12395;42.808;23.408;2022-08-30T15:00:21;9.98;;;7.53;;
24279;SDS011;12395;42.808;23.408;2022-08-30T15:02:47;11.68;;;7.30;;
24279;SDS011;12395;42.808;23.408;2022-08-30T15:05:13;10.05;;;7.45;;
24279;SDS011;12395;42.808;23.408;2022-08-30T15:07:39;12.20;;;7.57;;
24279;SDS011;12395;42.808;23.408;2022-08-30T15:10:05;12.10;;;7.13;;
24279;SDS011;12395;42.808;23.408;2022-08-30T15:12:32;12.13;;;7.38;;
24279;SDS011;12395;42.808;23.408;2022-08-30T15:14:58;14.10;;;8.27;;
24279;SDS011;12395;42.808;23.408;2022-08-30T15:17:23;12.18;;;7.25;;
24279;SDS011;12395;42.808;23.408;2022-08-30T15:19:49;11.75;;;7.57;;
24279;SDS011;12395;42.808;23.408;2022-08-30T15:22:15;10.73;;;7.40;;
24279;SDS011;12395;42.808;23.408;2022-08-30T15:24:40;14.20;;;7.60;;
24279;SDS011;12395;42.808;23.408;2022-08-30T15:27:07;10.85;;;7.20;;
24279;SDS011;12395;42.808;23.408;2022-08-30T15:29:32;11.13;;;7.18;;
24279;SDS011;12395;42.808;23.408;2022-08-30T15:31:58;12.45;;;7.40;;
24279;SDS011;12395;42.808;23.408;2022-08-30T15:34:25;10.60;;;7.10;;
24279;SDS011;12395;42.808;23.408;2022-08-30T15:36:50;11.75;;;7.57;;
24279;SDS011;12395;42.808;23.408;2022-08-30T15:39:16;11.68;;;8.10;;
24279;SDS011;12395;42.808;23.408;2022-08-30T15:41:43;11.43;;;7.65;;
24279;SDS011;12395;42.808;23.408;2022-08-30T15:44:09;15.85;;;7.78;;
24279;SDS011;12395;42.808;23.408;2022-08-30T15:46:35;9.95;;;7.28;;
24279;SDS011;12395;42.808;23.408;2022-08-30T15:51:31;11.32;;;7.55;;
24279;SDS011;12395;42.808;23.408;2022-08-30T15:53:57;11.75;;;8.10;;
24279;SDS011;12395;42.808;23.408;2022-08-30T15:56:23;13.95;;;8.02;;
24279;SDS011;12395;42.808;23.408;2022-08-30T15:58:49;14.18;;;8.30;;
24279;SDS011;12395;42.808;23.408;2022-08-30T16:01:15;15.05;;;8.73;;
24279;SDS011;12395;42.808;23.408;2022-08-30T16:03:41;13.85;;;8.18;;
24279;SDS011;12395;42.808;23.408;2022-08-30T16:06:14;14.88;;;8.90;;
24279;SDS011;12395;42.808;23.408;2022-08-30T16:08:50;12.50;;;8.20;;
24279;SDS011;12395;42.808;23.408;2022-08-30T16:11:16;15.63;;;8.38;;
24279;SDS011;12395;42.808;23.408;2022-08-30T16:13:47;11.65;;;7.95;;
24279;SDS011;12395;42.808;23.408;2022-08-30T16:16:13;14.25;;;8.40;;
24279;SDS011;12395;42.808;23.408;2022-08-30T16:18:43;11.13;;;8.45;;
24279;SDS011;12395;42.808;23.408;2022-08-30T16:21:11;12.30;;;8.63;;
24279;SDS011;12395;42.808;23.408;2022-08-30T16:23:39;14.30;;;8.68;;
24279;SDS011;12395;42.808;23.408;2022-08-30T16:28:32;13.15;;;8.48;;
24279;SDS011;12395;42.808;23.408;2022-08-30T16:30:59;12.88;;;8.70;;